sensor_id;sensor_type;location;lat;lon;timestamp;P1;durP1;ratioP1;P2;durP2;ratioP2
37459;SDS011;23318;50.966;5.284;2022-07-21T00:00:31;14.13;;;12.05;;
37459;SDS011;23318;50.966;5.284;2022-07-21T00:02:57;15.82;;;12.27;;
37459;SDS011;23318;50.966;5.284;2022-07-21T00:05:24;13.30;;;11.45;;
37459;SDS011;23318;50.966;5.284;2022-07-21T00:07:50;14.30;;;11.88;;
37459;SDS011;23318;50.966;5.284;2022-07-21T00:10:17;15.02;;;12.60;;
37459;SDS011;23318;50.966;5.284;2022-07-21T00:12:44;14.15;;;12.05;;
37459;SDS011;23318;50.966;5.284;2022-07-21T00:15:11;14.85;;;12.23;;
37459;SDS011;23318;50.966;5.284;2022-07-21T00:17:37;13.07;;;11.70;;
37459;SDS011;23318;50.966;5.284;2022-07-21T00:20:04;16.02;;;12.77;;
37459;SDS011;23318;50.966;5.284;2022-07-21T00:22:31;14.23;;;12.38;;
37459;SDS011;23318;50.966;5.284;2022-07-21T00:24:57;16.05;;;13.38;;
37459;SDS011;23318;50.966;5.284;2022-07-21T00:27:23;17.08;;;11.95;;
37459;SDS011;23318;50.966;5.284;2022-07-21T00:29:49;14.48;;;11.68;;
37459;SDS011;23318;50.966;5.284;2022-07-21T00:32:15;13.68;;;11.13;;
37459;SDS011;23318;50.966;5.284;2022-07-21T00:34:41;13.98;;;11.70;;
37459;SDS011;23318;50.966;5.284;2022-07-21T00:37:06;12.68;;;11.32;;
37459;SDS011;23318;50.966;5.284;2022-07-21T00:39:32;16.85;;;13.23;;
37459;SDS011;23318;50.966;5.284;2022-07-21T00:41:58;19.15;;;12.95;;
37459;SDS011;23318;50.966;5.284;2022-07-21T00:44:24;16.05;;;12.85;;
37459;SDS011;23318;50.966;5.284;2022-07-21T00:46:51;14.57;;;12.68;;
37459;SDS011;23318;50.966;5.284;2022-07-21T00:49:17;16.65;;;12.25;;
37459;SDS011;23318;50.966;5.284;2022-07-21T00:51:44;14.25;;;12.75;;
37459;SDS011;23318;50.966;5.284;2022-07-21T00:54:10;13.43;;;12.00;;
37459;SDS011;23318;50.966;5.284;2022-07-21T00:56:37;13.88;;;12.18;;
37459;SDS011;23318;50.966;5.284;2022-07-21T00:59:03;13.68;;;12.20;;
37459;SDS011;23318;50.966;5.284;2022-07-21T01:01:29;13.25;;;11.20;;
37459;SDS011;23318;50.966;5.284;2022-07-21T01:03:54;17.33;;;12.15;;
37459;SDS011;23318;50.966;5.284;2022-07-21T01:06:22;13.10;;;11.43;;
37459;SDS011;23318;50.966;5.284;2022-07-21T01:08:50;13.35;;;11.95;;
37459;SDS011;23318;50.966;5.284;2022-07-21T01:11:16;14.48;;;12.52;;
37459;SDS011;23318;50.966;5.284;2022-07-21T01:13:43;18.35;;;12.07;;
37459;SDS011;23318;50.966;5.284;2022-07-21T01:16:09;15.82;;;12.27;;
37459;SDS011;23318;50.966;5.284;2022-07-21T01:18:35;15.60;;;11.98;;
37459;SDS011;23318;50.966;5.284;2022-07-21T01:21:02;18.20;;;12.80;;
37459;SDS011;23318;50.966;5.284;2022-07-21T01:23:30;13.80;;;11.40;;
37459;SDS011;23318;50.966;5.284;2022-07-21T01:25:56;19.38;;;13.45;;
37459;SDS011;23318;50.966;5.284;2022-07-21T01:28:21;17.92;;;13.95;;
37459;SDS011;23318;50.966;5.284;2022-07-21T01:30:47;19.05;;;14.68;;
37459;SDS011;23318;50.966;5.284;2022-07-21T01:33:13;18.33;;;13.43;;
37459;SDS011;23318;50.966;5.284;2022-07-21T01:35:38;16.25;;;13.65;;
37459;SDS011;23318;50.966;5.284;2022-07-21T01:38:04;18.13;;;14.50;;
37459;SDS011;23318;50.966;5.284;2022-07-21T01:40:54;15.32;;;13.55;;
37459;SDS011;23318;50.966;5.284;2022-07-21T01:43:40;20.02;;;15.02;;
37459;SDS011;23318;50.966;5.284;2022-07-21T01:46:08;20.02;;;14.68;;
37459;SDS011;23318;50.966;5.284;2022-07-21T01:48:40;21.83;;;14.95;;
37459;SDS011;23318;50.966;5.284;2022-07-21T01:51:09;20.95;;;16.02;;
37459;SDS011;23318;50.966;5.284;2022-07-21T01:53:35;20.73;;;15.50;;
37459;SDS011;23318;50.966;5.284;2022-07-21T01:56:00;18.73;;;16.38;;
37459;SDS011;23318;50.966;5.284;2022-07-21T01:58:26;20.00;;;16.75;;
37459;SDS011;23318;50.966;5.284;2022-07-21T02:00:52;20.80;;;16.70;;
37459;SDS011;23318;50.966;5.284;2022-07-21T02:03:17;20.15;;;16.60;;
37459;SDS011;23318;50.966;5.284;2022-07-21T02:05:43;21.20;;;17.33;;
37459;SDS011;23318;50.966;5.284;2022-07-21T02:08:09;19.23;;;17.02;;
37459;SDS011;23318;50.966;5.284;2022-07-21T02:10:34;21.02;;;16.83;;
37459;SDS011;23318;50.966;5.284;2022-07-21T02:13:01;20.35;;;17.02;;
37459;SDS011;23318;50.966;5.284;2022-07-21T02:15:28;20.48;;;17.67;;
37459;SDS011;23318;50.966;5.284;2022-07-21T02:17:54;23.92;;;18.40;;
37459;SDS011;23318;50.966;5.284;2022-07-21T02:20:21;21.58;;;16.67;;
37459;SDS011;23318;50.966;5.284;2022-07-21T02:22:47;19.33;;;17.27;;
37459;SDS011;23318;50.966;5.284;2022-07-21T02:25:13;26.88;;;18.42;;
37459;SDS011;23318;50.966;5.284;2022-07-21T02:27:39;23.40;;;17.80;;
37459;SDS011;23318;50.966;5.284;2022-07-21T02:30:06;25.17;;;17.85;;
37459;SDS011;23318;50.966;5.284;2022-07-21T02:32:32;21.75;;;18.60;;
37459;SDS011;23318;50.966;5.284;2022-07-21T02:34:58;21.92;;;18.50;;
37459;SDS011;23318;50.966;5.284;2022-07-21T02:37:24;25.50;;;20.02;;
37459;SDS011;23318;50.966;5.284;2022-07-21T02:39:49;26.40;;;19.17;;
37459;SDS011;23318;50.966;5.284;2022-07-21T02:42:15;27.05;;;20.20;;
37459;SDS011;23318;50.966;5.284;2022-07-21T02:44:41;25.25;;;19.33;;
37459;SDS011;23318;50.966;5.284;2022-07-21T02:47:06;23.48;;;20.05;;
37459;SDS011;23318;50.966;5.284;2022-07-21T02:49:32;26.27;;;19.17;;
37459;SDS011;23318;50.966;5.284;2022-07-21T02:51:58;27.00;;;20.17;;
37459;SDS011;23318;50.966;5.284;2022-07-21T02:54:23;23.48;;;20.00;;
37459;SDS011;23318;50.966;5.284;2022-07-21T02:56:49;24.35;;;19.90;;
37459;SDS011;23318;50.966;5.284;2022-07-21T02:59:15;25.20;;;19.25;;
37459;SDS011;23318;50.966;5.284;2022-07-21T03:01:41;30.08;;;20.50;;
37459;SDS011;23318;50.966;5.284;2022-07-21T03:04:07;26.52;;;19.45;;
37459;SDS011;23318;50.966;5.284;2022-07-21T03:06:33;28.27;;;20.38;;
37459;SDS011;23318;50.966;5.284;2022-07-21T03:08:59;26.30;;;20.05;;
37459;SDS011;23318;50.966;5.284;2022-07-21T03:11:24;25.85;;;21.55;;
37459;SDS011;23318;50.966;5.284;2022-07-21T03:13:50;27.00;;;20.27;;
37459;SDS011;23318;50.966;5.284;2022-07-21T03:16:16;34.25;;;20.92;;
37459;SDS011;23318;50.966;5.284;2022-07-21T03:18:41;23.35;;;20.77;;
37459;SDS011;23318;50.966;5.284;2022-07-21T03:21:07;28.60;;;20.15;;
37459;SDS011;23318;50.966;5.284;2022-07-21T03:23:33;29.75;;;20.55;;
37459;SDS011;23318;50.966;5.284;2022-07-21T03:25:59;26.88;;;20.73;;
37459;SDS011;23318;50.966;5.284;2022-07-21T03:28:24;27.67;;;20.52;;
37459;SDS011;23318;50.966;5.284;2022-07-21T03:30:50;28.60;;;22.27;;
37459;SDS011;23318;50.966;5.284;2022-07-21T03:33:16;29.30;;;20.88;;
37459;SDS011;23318;50.966;5.284;2022-07-21T03:35:41;23.90;;;20.65;;
37459;SDS011;23318;50.966;5.284;2022-07-21T03:38:07;27.00;;;21.10;;
37459;SDS011;23318;50.966;5.284;2022-07-21T03:40:35;26.25;;;21.60;;
37459;SDS011;23318;50.966;5.284;2022-07-21T03:43:03;26.92;;;20.35;;
37459;SDS011;23318;50.966;5.284;2022-07-21T03:45:31;29.23;;;21.40;;
37459;SDS011;23318;50.966;5.284;2022-07-21T03:47:58;28.48;;;21.60;;
37459;SDS011;23318;50.966;5.284;2022-07-21T03:50:24;26.67;;;20.48;;
37459;SDS011;23318;50.966;5.284;2022-07-21T03:52:50;27.13;;;22.38;;
37459;SDS011;23318;50.966;5.284;2022-07-21T03:55:16;27.67;;;22.73;;
37459;SDS011;23318;50.966;5.284;2022-07-21T03:57:49;34.08;;;21.48;;
37459;SDS011;23318;50.966;5.284;2022-07-21T04:00:22;25.40;;;20.75;;
37459;SDS011;23318;50.966;5.284;2022-07-21T04:03:08;27.05;;;21.48;;
37459;SDS011;23318;50.966;5.284;2022-07-21T04:05:35;29.77;;;21.08;;
37459;SDS011;23318;50.966;5.284;2022-07-21T04:08:01;30.92;;;21.00;;
37459;SDS011;23318;50.966;5.284;2022-07-21T04:10:30;25.77;;;20.92;;
37459;SDS011;23318;50.966;5.284;2022-07-21T04:12:58;25.83;;;20.38;;
37459;SDS011;23318;50.966;5.284;2022-07-21T04:15:25;26.25;;;20.60;;
37459;SDS011;23318;50.966;5.284;2022-07-21T04:17:51;26.52;;;19.70;;
37459;SDS011;23318;50.966;5.284;2022-07-21T04:20:17;27.00;;;20.25;;
37459;SDS011;23318;50.966;5.284;2022-07-21T04:22:44;25.30;;;19.77;;
37459;SDS011;23318;50.966;5.284;2022-07-21T04:25:11;27.25;;;19.00;;
37459;SDS011;23318;50.966;5.284;2022-07-21T04:27:37;26.92;;;19.67;;
37459;SDS011;23318;50.966;5.284;2022-07-21T04:30:04;27.20;;;20.00;;
37459;SDS011;23318;50.966;5.284;2022-07-21T04:32:31;30.38;;;19.10;;
37459;SDS011;23318;50.966;5.284;2022-07-21T04:34:56;25.67;;;19.75;;
37459;SDS011;23318;50.966;5.284;2022-07-21T04:37:22;28.75;;;19.05;;
37459;SDS011;23318;50.966;5.284;2022-07-21T04:39:48;24.40;;;18.67;;
37459;SDS011;23318;50.966;5.284;2022-07-21T04:42:14;25.67;;;19.40;;
37459;SDS011;23318;50.966;5.284;2022-07-21T04:44:40;25.35;;;18.27;;
37459;SDS011;23318;50.966;5.284;2022-07-21T04:47:05;28.05;;;19.33;;
37459;SDS011;23318;50.966;5.284;2022-07-21T04:49:31;27.92;;;19.55;;
37459;SDS011;23318;50.966;5.284;2022-07-21T04:51:57;25.15;;;19.52;;
37459;SDS011;23318;50.966;5.284;2022-07-21T04:54:22;26.15;;;19.00;;
37459;SDS011;23318;50.966;5.284;2022-07-21T04:56:48;21.25;;;17.45;;
37459;SDS011;23318;50.966;5.284;2022-07-21T04:59:14;24.45;;;17.60;;
37459;SDS011;23318;50.966;5.284;2022-07-21T05:01:39;22.55;;;18.17;;
37459;SDS011;23318;50.966;5.284;2022-07-21T05:04:05;24.40;;;17.35;;
37459;SDS011;23318;50.966;5.284;2022-07-21T05:06:32;27.08;;;18.08;;
37459;SDS011;23318;50.966;5.284;2022-07-21T05:08:57;22.65;;;17.88;;
37459;SDS011;23318;50.966;5.284;2022-07-21T05:11:24;21.27;;;17.67;;
37459;SDS011;23318;50.966;5.284;2022-07-21T05:13:51;29.27;;;18.02;;
37459;SDS011;23318;50.966;5.284;2022-07-21T05:16:17;24.05;;;17.45;;
37459;SDS011;23318;50.966;5.284;2022-07-21T05:18:42;22.65;;;16.65;;
37459;SDS011;23318;50.966;5.284;2022-07-21T05:21:08;23.08;;;16.92;;
37459;SDS011;23318;50.966;5.284;2022-07-21T05:23:34;22.85;;;16.65;;
37459;SDS011;23318;50.966;5.284;2022-07-21T05:25:59;22.38;;;16.95;;
37459;SDS011;23318;50.966;5.284;2022-07-21T05:28:26;18.10;;;14.60;;
37459;SDS011;23318;50.966;5.284;2022-07-21T05:30:52;23.83;;;16.55;;
37459;SDS011;23318;50.966;5.284;2022-07-21T05:33:18;20.27;;;14.93;;
37459;SDS011;23318;50.966;5.284;2022-07-21T05:35:44;19.85;;;15.95;;
37459;SDS011;23318;50.966;5.284;2022-07-21T05:38:09;23.70;;;15.65;;
37459;SDS011;23318;50.966;5.284;2022-07-21T05:40:36;21.50;;;15.20;;
37459;SDS011;23318;50.966;5.284;2022-07-21T05:43:02;21.77;;;15.98;;
37459;SDS011;23318;50.966;5.284;2022-07-21T05:45:27;25.15;;;16.00;;
37459;SDS011;23318;50.966;5.284;2022-07-21T05:47:53;22.75;;;14.98;;
37459;SDS011;23318;50.966;5.284;2022-07-21T05:50:19;22.45;;;15.73;;
37459;SDS011;23318;50.966;5.284;2022-07-21T05:52:44;23.58;;;16.20;;
37459;SDS011;23318;50.966;5.284;2022-07-21T05:55:10;17.75;;;14.48;;
37459;SDS011;23318;50.966;5.284;2022-07-21T05:57:37;23.40;;;15.18;;
37459;SDS011;23318;50.966;5.284;2022-07-21T06:00:03;22.80;;;15.50;;
37459;SDS011;23318;50.966;5.284;2022-07-21T06:02:29;23.73;;;14.88;;
37459;SDS011;23318;50.966;5.284;2022-07-21T06:04:57;20.05;;;14.43;;
37459;SDS011;23318;50.966;5.284;2022-07-21T06:07:22;22.92;;;13.93;;
37459;SDS011;23318;50.966;5.284;2022-07-21T06:09:48;19.83;;;13.48;;
37459;SDS011;23318;50.966;5.284;2022-07-21T06:12:14;23.10;;;11.98;;
37459;SDS011;23318;50.966;5.284;2022-07-21T06:14:39;20.88;;;13.07;;
37459;SDS011;23318;50.966;5.284;2022-07-21T06:17:05;22.42;;;14.13;;
37459;SDS011;23318;50.966;5.284;2022-07-21T06:19:31;18.83;;;14.05;;
37459;SDS011;23318;50.966;5.284;2022-07-21T06:21:57;18.88;;;14.00;;
37459;SDS011;23318;50.966;5.284;2022-07-21T06:24:23;19.00;;;14.20;;
37459;SDS011;23318;50.966;5.284;2022-07-21T06:26:51;18.40;;;14.25;;
37459;SDS011;23318;50.966;5.284;2022-07-21T06:29:17;19.05;;;13.82;;
37459;SDS011;23318;50.966;5.284;2022-07-21T06:31:43;23.85;;;14.23;;
37459;SDS011;23318;50.966;5.284;2022-07-21T06:34:09;20.70;;;13.75;;
37459;SDS011;23318;50.966;5.284;2022-07-21T06:36:34;25.33;;;15.15;;
37459;SDS011;23318;50.966;5.284;2022-07-21T06:39:00;27.33;;;16.05;;
37459;SDS011;23318;50.966;5.284;2022-07-21T06:41:26;28.35;;;16.50;;
37459;SDS011;23318;50.966;5.284;2022-07-21T06:43:51;20.17;;;15.20;;
37459;SDS011;23318;50.966;5.284;2022-07-21T06:46:17;24.05;;;15.13;;
37459;SDS011;23318;50.966;5.284;2022-07-21T06:48:43;19.88;;;15.18;;
37459;SDS011;23318;50.966;5.284;2022-07-21T06:51:08;19.77;;;14.57;;
37459;SDS011;23318;50.966;5.284;2022-07-21T06:53:34;22.98;;;15.75;;
37459;SDS011;23318;50.966;5.284;2022-07-21T06:55:59;24.92;;;15.98;;
37459;SDS011;23318;50.966;5.284;2022-07-21T06:58:25;24.73;;;15.90;;
37459;SDS011;23318;50.966;5.284;2022-07-21T07:00:52;24.00;;;15.70;;
37459;SDS011;23318;50.966;5.284;2022-07-21T07:03:18;22.92;;;17.13;;
37459;SDS011;23318;50.966;5.284;2022-07-21T07:05:45;28.02;;;16.70;;
37459;SDS011;23318;50.966;5.284;2022-07-21T07:08:12;21.00;;;16.10;;
37459;SDS011;23318;50.966;5.284;2022-07-21T07:10:41;25.55;;;16.35;;
37459;SDS011;23318;50.966;5.284;2022-07-21T07:13:07;28.00;;;18.00;;
37459;SDS011;23318;50.966;5.284;2022-07-21T07:15:33;32.22;;;16.85;;
37459;SDS011;23318;50.966;5.284;2022-07-21T07:17:59;27.75;;;18.20;;
37459;SDS011;23318;50.966;5.284;2022-07-21T07:20:25;30.20;;;18.98;;
37459;SDS011;23318;50.966;5.284;2022-07-21T07:22:50;28.98;;;18.75;;
37459;SDS011;23318;50.966;5.284;2022-07-21T07:25:16;24.63;;;17.70;;
37459;SDS011;23318;50.966;5.284;2022-07-21T07:27:45;30.15;;;19.45;;
37459;SDS011;23318;50.966;5.284;2022-07-21T07:30:13;25.80;;;18.50;;
37459;SDS011;23318;50.966;5.284;2022-07-21T07:32:39;28.45;;;19.23;;
37459;SDS011;23318;50.966;5.284;2022-07-21T07:35:07;26.88;;;19.50;;
37459;SDS011;23318;50.966;5.284;2022-07-21T07:37:35;34.15;;;20.60;;
37459;SDS011;23318;50.966;5.284;2022-07-21T07:40:03;30.45;;;19.90;;
37459;SDS011;23318;50.966;5.284;2022-07-21T07:42:30;35.17;;;21.17;;
37459;SDS011;23318;50.966;5.284;2022-07-21T07:44:56;36.88;;;22.35;;
37459;SDS011;23318;50.966;5.284;2022-07-21T07:47:22;34.85;;;22.10;;
37459;SDS011;23318;50.966;5.284;2022-07-21T07:49:48;38.42;;;22.73;;
37459;SDS011;23318;50.966;5.284;2022-07-21T07:52:15;39.13;;;23.92;;
37459;SDS011;23318;50.966;5.284;2022-07-21T07:54:41;34.50;;;23.30;;
37459;SDS011;23318;50.966;5.284;2022-07-21T07:57:07;40.15;;;24.42;;
37459;SDS011;23318;50.966;5.284;2022-07-21T07:59:32;39.58;;;25.10;;
37459;SDS011;23318;50.966;5.284;2022-07-21T08:01:58;48.70;;;27.05;;
37459;SDS011;23318;50.966;5.284;2022-07-21T08:04:23;43.63;;;27.88;;
37459;SDS011;23318;50.966;5.284;2022-07-21T08:06:49;47.20;;;28.83;;
37459;SDS011;23318;50.966;5.284;2022-07-21T08:09:15;50.83;;;27.70;;
37459;SDS011;23318;50.966;5.284;2022-07-21T08:11:41;49.17;;;29.25;;
37459;SDS011;23318;50.966;5.284;2022-07-21T08:14:08;47.92;;;30.83;;
37459;SDS011;23318;50.966;5.284;2022-07-21T08:16:34;47.17;;;29.83;;
37459;SDS011;23318;50.966;5.284;2022-07-21T08:19:00;50.97;;;29.58;;
37459;SDS011;23318;50.966;5.284;2022-07-21T08:21:25;48.90;;;29.40;;
37459;SDS011;23318;50.966;5.284;2022-07-21T08:23:55;49.55;;;30.17;;
37459;SDS011;23318;50.966;5.284;2022-07-21T08:26:22;57.35;;;30.25;;
37459;SDS011;23318;50.966;5.284;2022-07-21T08:28:47;51.25;;;30.15;;
37459;SDS011;23318;50.966;5.284;2022-07-21T08:31:13;49.40;;;29.27;;
37459;SDS011;23318;50.966;5.284;2022-07-21T08:33:38;43.78;;;30.73;;
37459;SDS011;23318;50.966;5.284;2022-07-21T08:36:04;46.03;;;27.95;;
37459;SDS011;23318;50.966;5.284;2022-07-21T08:38:30;49.50;;;28.83;;
37459;SDS011;23318;50.966;5.284;2022-07-21T08:40:56;42.38;;;27.08;;
37459;SDS011;23318;50.966;5.284;2022-07-21T08:43:23;51.70;;;28.42;;
37459;SDS011;23318;50.966;5.284;2022-07-21T08:45:49;46.58;;;27.15;;
37459;SDS011;23318;50.966;5.284;2022-07-21T08:48:15;43.13;;;27.05;;
37459;SDS011;23318;50.966;5.284;2022-07-21T08:50:45;43.90;;;26.08;;
37459;SDS011;23318;50.966;5.284;2022-07-21T08:53:11;47.55;;;26.83;;
37459;SDS011;23318;50.966;5.284;2022-07-21T08:55:37;49.47;;;28.08;;
37459;SDS011;23318;50.966;5.284;2022-07-21T08:58:06;44.35;;;25.08;;
37459;SDS011;23318;50.966;5.284;2022-07-21T09:00:37;47.88;;;27.80;;
37459;SDS011;23318;50.966;5.284;2022-07-21T09:03:23;44.40;;;25.92;;
37459;SDS011;23318;50.966;5.284;2022-07-21T09:08:42;42.50;;;26.05;;
37459;SDS011;23318;50.966;5.284;2022-07-21T09:13:41;41.70;;;25.88;;
37459;SDS011;23318;50.966;5.284;2022-07-21T09:16:08;38.95;;;25.88;;
37459;SDS011;23318;50.966;5.284;2022-07-21T09:18:43;45.35;;;26.95;;
37459;SDS011;23318;50.966;5.284;2022-07-21T09:21:12;54.13;;;31.08;;
37459;SDS011;23318;50.966;5.284;2022-07-21T09:23:41;50.88;;;30.65;;
37459;SDS011;23318;50.966;5.284;2022-07-21T09:26:07;62.30;;;32.30;;
37459;SDS011;23318;50.966;5.284;2022-07-21T09:28:32;56.88;;;32.45;;
37459;SDS011;23318;50.966;5.284;2022-07-21T09:31:00;55.53;;;32.97;;
37459;SDS011;23318;50.966;5.284;2022-07-21T09:36:23;67.70;;;36.97;;
37459;SDS011;23318;50.966;5.284;2022-07-21T09:38:53;68.53;;;37.17;;
37459;SDS011;23318;50.966;5.284;2022-07-21T09:41:23;69.05;;;37.38;;
37459;SDS011;23318;50.966;5.284;2022-07-21T09:43:51;73.68;;;39.05;;
37459;SDS011;23318;50.966;5.284;2022-07-21T09:46:18;73.32;;;38.67;;
37459;SDS011;23318;50.966;5.284;2022-07-21T09:48:54;81.82;;;42.25;;
37459;SDS011;23318;50.966;5.284;2022-07-21T09:51:26;75.72;;;41.50;;
37459;SDS011;23318;50.966;5.284;2022-07-21T09:54:08;80.75;;;40.97;;
37459;SDS011;23318;50.966;5.284;2022-07-21T09:56:39;86.95;;;42.55;;
37459;SDS011;23318;50.966;5.284;2022-07-21T09:59:07;79.82;;;40.55;;
37459;SDS011;23318;50.966;5.284;2022-07-21T10:01:34;73.82;;;39.22;;
37459;SDS011;23318;50.966;5.284;2022-07-21T10:04:04;82.68;;;41.53;;
37459;SDS011;23318;50.966;5.284;2022-07-21T10:06:31;71.20;;;38.63;;
37459;SDS011;23318;50.966;5.284;2022-07-21T10:08:59;65.13;;;36.60;;
37459;SDS011;23318;50.966;5.284;2022-07-21T10:11:27;67.10;;;37.50;;
37459;SDS011;23318;50.966;5.284;2022-07-21T10:13:53;60.97;;;33.25;;
37459;SDS011;23318;50.966;5.284;2022-07-21T10:16:19;60.85;;;34.53;;
37459;SDS011;23318;50.966;5.284;2022-07-21T10:18:51;64.50;;;34.13;;
37459;SDS011;23318;50.966;5.284;2022-07-21T10:21:29;61.70;;;32.15;;
37459;SDS011;23318;50.966;5.284;2022-07-21T10:24:12;59.13;;;32.83;;
37459;SDS011;23318;50.966;5.284;2022-07-21T10:26:39;50.78;;;29.48;;
37459;SDS011;23318;50.966;5.284;2022-07-21T10:32:13;49.78;;;30.58;;
37459;SDS011;23318;50.966;5.284;2022-07-21T10:34:40;49.53;;;29.55;;
37459;SDS011;23318;50.966;5.284;2022-07-21T10:37:07;43.90;;;27.77;;
37459;SDS011;23318;50.966;5.284;2022-07-21T10:39:33;51.35;;;29.88;;
37459;SDS011;23318;50.966;5.284;2022-07-21T10:41:59;48.58;;;29.73;;
37459;SDS011;23318;50.966;5.284;2022-07-21T10:44:38;46.70;;;30.02;;
37459;SDS011;23318;50.966;5.284;2022-07-21T10:47:14;37.67;;;25.10;;
37459;SDS011;23318;50.966;5.284;2022-07-21T10:49:42;39.03;;;24.40;;
37459;SDS011;23318;50.966;5.284;2022-07-21T10:57:35;28.77;;;20.42;;
37459;SDS011;23318;50.966;5.284;2022-07-21T11:00:21;28.35;;;21.55;;
37459;SDS011;23318;50.966;5.284;2022-07-21T11:05:24;23.50;;;17.50;;
37459;SDS011;23318;50.966;5.284;2022-07-21T11:08:10;20.63;;;16.98;;
37459;SDS011;23318;50.966;5.284;2022-07-21T11:10:39;24.75;;;18.35;;
37459;SDS011;23318;50.966;5.284;2022-07-21T11:13:09;27.55;;;17.85;;
37459;SDS011;23318;50.966;5.284;2022-07-21T11:16:08;23.00;;;17.20;;
37459;SDS011;23318;50.966;5.284;2022-07-21T11:18:28;19.55;;;15.65;;
37459;SDS011;23318;50.966;5.284;2022-07-21T11:21:09;19.30;;;17.17;;
37459;SDS011;23318;50.966;5.284;2022-07-21T11:23:38;19.02;;;15.10;;
37459;SDS011;23318;50.966;5.284;2022-07-21T11:26:05;16.83;;;15.00;;
37459;SDS011;23318;50.966;5.284;2022-07-21T11:28:32;17.95;;;12.73;;
37459;SDS011;23318;50.966;5.284;2022-07-21T11:33:41;14.13;;;10.43;;
37459;SDS011;23318;50.966;5.284;2022-07-21T11:36:09;14.43;;;10.82;;
37459;SDS011;23318;50.966;5.284;2022-07-21T11:38:35;14.00;;;11.25;;
37459;SDS011;23318;50.966;5.284;2022-07-21T11:41:17;16.33;;;10.95;;
37459;SDS011;23318;50.966;5.284;2022-07-21T11:43:44;13.82;;;9.50;;
37459;SDS011;23318;50.966;5.284;2022-07-21T11:46:11;11.80;;;8.15;;
37459;SDS011;23318;50.966;5.284;2022-07-21T11:48:37;13.25;;;8.52;;
37459;SDS011;23318;50.966;5.284;2022-07-21T11:51:03;12.35;;;7.30;;
37459;SDS011;23318;50.966;5.284;2022-07-21T11:53:29;9.80;;;7.40;;
37459;SDS011;23318;50.966;5.284;2022-07-21T11:55:56;11.10;;;7.65;;
37459;SDS011;23318;50.966;5.284;2022-07-21T11:58:22;15.93;;;7.35;;
37459;SDS011;23318;50.966;5.284;2022-07-21T12:00:48;12.88;;;7.32;;
37459;SDS011;23318;50.966;5.284;2022-07-21T12:03:14;16.20;;;8.95;;
37459;SDS011;23318;50.966;5.284;2022-07-21T12:05:40;12.00;;;8.82;;
37459;SDS011;23318;50.966;5.284;2022-07-21T12:08:06;16.42;;;11.30;;
37459;SDS011;23318;50.966;5.284;2022-07-21T12:10:32;19.20;;;13.52;;
37459;SDS011;23318;50.966;5.284;2022-07-21T12:15:26;25.17;;;15.77;;
37459;SDS011;23318;50.966;5.284;2022-07-21T12:20:41;19.33;;;14.57;;
37459;SDS011;23318;50.966;5.284;2022-07-21T12:23:20;20.92;;;16.35;;
37459;SDS011;23318;50.966;5.284;2022-07-21T12:25:46;23.35;;;17.42;;
37459;SDS011;23318;50.966;5.284;2022-07-21T12:28:13;23.42;;;16.63;;
37459;SDS011;23318;50.966;5.284;2022-07-21T12:30:40;25.05;;;17.73;;
37459;SDS011;23318;50.966;5.284;2022-07-21T12:33:18;22.45;;;16.05;;
37459;SDS011;23318;50.966;5.284;2022-07-21T12:36:00;23.23;;;16.23;;
37459;SDS011;23318;50.966;5.284;2022-07-21T12:38:38;27.42;;;16.90;;
37459;SDS011;23318;50.966;5.284;2022-07-21T12:41:10;21.40;;;14.07;;
37459;SDS011;23318;50.966;5.284;2022-07-21T12:43:37;23.30;;;14.25;;
37459;SDS011;23318;50.966;5.284;2022-07-21T12:48:37;20.13;;;12.48;;
37459;SDS011;23318;50.966;5.284;2022-07-21T12:51:10;17.35;;;10.68;;
37459;SDS011;23318;50.966;5.284;2022-07-21T12:53:40;13.30;;;9.07;;
37459;SDS011;23318;50.966;5.284;2022-07-21T12:56:08;14.20;;;10.07;;
37459;SDS011;23318;50.966;5.284;2022-07-21T12:58:35;18.00;;;10.07;;
37459;SDS011;23318;50.966;5.284;2022-07-21T13:01:02;14.95;;;9.55;;
37459;SDS011;23318;50.966;5.284;2022-07-21T13:03:29;11.75;;;8.75;;
37459;SDS011;23318;50.966;5.284;2022-07-21T13:05:56;13.57;;;7.80;;
37459;SDS011;23318;50.966;5.284;2022-07-21T13:08:23;11.48;;;7.53;;
37459;SDS011;23318;50.966;5.284;2022-07-21T13:10:48;8.73;;;6.35;;
37459;SDS011;23318;50.966;5.284;2022-07-21T13:13:14;9.45;;;7.43;;
37459;SDS011;23318;50.966;5.284;2022-07-21T13:15:40;8.55;;;6.97;;
37459;SDS011;23318;50.966;5.284;2022-07-21T13:18:05;9.73;;;6.25;;
37459;SDS011;23318;50.966;5.284;2022-07-21T13:20:31;10.68;;;7.07;;
37459;SDS011;23318;50.966;5.284;2022-07-21T13:22:57;8.93;;;6.25;;
37459;SDS011;23318;50.966;5.284;2022-07-21T13:25:22;7.60;;;6.00;;
37459;SDS011;23318;50.966;5.284;2022-07-21T13:27:48;7.20;;;4.78;;
37459;SDS011;23318;50.966;5.284;2022-07-21T13:30:13;5.95;;;5.35;;
37459;SDS011;23318;50.966;5.284;2022-07-21T13:32:40;15.65;;;6.50;;
37459;SDS011;23318;50.966;5.284;2022-07-21T13:35:06;13.52;;;7.18;;
37459;SDS011;23318;50.966;5.284;2022-07-21T13:37:32;9.18;;;5.53;;
37459;SDS011;23318;50.966;5.284;2022-07-21T13:39:58;6.82;;;5.28;;
37459;SDS011;23318;50.966;5.284;2022-07-21T13:42:24;8.63;;;5.25;;
37459;SDS011;23318;50.966;5.284;2022-07-21T13:44:50;8.30;;;5.32;;
37459;SDS011;23318;50.966;5.284;2022-07-21T13:47:15;10.70;;;5.50;;
37459;SDS011;23318;50.966;5.284;2022-07-21T13:49:41;10.00;;;5.55;;
37459;SDS011;23318;50.966;5.284;2022-07-21T13:52:07;7.70;;;6.18;;
37459;SDS011;23318;50.966;5.284;2022-07-21T13:54:33;12.48;;;6.30;;
37459;SDS011;23318;50.966;5.284;2022-07-21T13:56:58;14.20;;;6.80;;
37459;SDS011;23318;50.966;5.284;2022-07-21T13:59:25;10.98;;;6.80;;
37459;SDS011;23318;50.966;5.284;2022-07-21T14:01:51;8.32;;;6.28;;
37459;SDS011;23318;50.966;5.284;2022-07-21T14:04:17;12.93;;;6.80;;
37459;SDS011;23318;50.966;5.284;2022-07-21T14:06:42;10.25;;;6.68;;
37459;SDS011;23318;50.966;5.284;2022-07-21T14:09:12;10.18;;;6.50;;
37459;SDS011;23318;50.966;5.284;2022-07-21T14:11:38;10.05;;;5.57;;
37459;SDS011;23318;50.966;5.284;2022-07-21T14:14:04;10.48;;;5.70;;
37459;SDS011;23318;50.966;5.284;2022-07-21T14:16:30;16.33;;;6.50;;
37459;SDS011;23318;50.966;5.284;2022-07-21T14:18:55;11.75;;;5.28;;
37459;SDS011;23318;50.966;5.284;2022-07-21T14:21:21;7.75;;;4.97;;
37459;SDS011;23318;50.966;5.284;2022-07-21T14:23:46;9.77;;;5.38;;
37459;SDS011;23318;50.966;5.284;2022-07-21T14:26:12;10.95;;;5.82;;
37459;SDS011;23318;50.966;5.284;2022-07-21T14:28:38;12.20;;;6.68;;
37459;SDS011;23318;50.966;5.284;2022-07-21T14:31:03;12.07;;;6.20;;
37459;SDS011;23318;50.966;5.284;2022-07-21T14:33:29;14.18;;;7.22;;
37459;SDS011;23318;50.966;5.284;2022-07-21T14:35:55;14.13;;;7.47;;
37459;SDS011;23318;50.966;5.284;2022-07-21T14:38:21;13.10;;;8.30;;
37459;SDS011;23318;50.966;5.284;2022-07-21T14:40:47;21.95;;;9.95;;
37459;SDS011;23318;50.966;5.284;2022-07-21T14:43:13;21.27;;;9.27;;
37459;SDS011;23318;50.966;5.284;2022-07-21T14:45:38;18.75;;;8.40;;
37459;SDS011;23318;50.966;5.284;2022-07-21T14:48:05;17.67;;;8.10;;
37459;SDS011;23318;50.966;5.284;2022-07-21T14:50:32;18.27;;;7.70;;
37459;SDS011;23318;50.966;5.284;2022-07-21T14:52:58;18.10;;;8.85;;